createdAt,value
2019-04-29T00:03:15.419Z,3.46
2019-04-29T00:08:23.946Z,3.47
2019-04-29T00:13:32.491Z,3.44
2019-04-29T00:18:41.303Z,3.26
2019-04-29T00:24:02.912Z,3.28
2019-04-29T00:28:57.915Z,3.22
2019-04-29T00:34:07.335Z,3.08
2019-04-29T00:39:15.894Z,3.40
2019-04-29T00:44:24.648Z,3.24
2019-04-29T00:49:33.300Z,3.48
2019-04-29T00:54:41.849Z,3.57
2019-04-29T00:59:50.471Z,3.30
2019-04-29T01:04:58.973Z,3.47
2019-04-29T01:10:07.511Z,3.86
2019-04-29T01:15:16.028Z,3.42
2019-04-29T01:20:24.559Z,3.42
2019-04-29T01:25:33.294Z,3.52
2019-04-29T01:30:41.777Z,6.09
2019-04-29T01:35:50.358Z,3.60
2019-04-29T01:40:58.888Z,3.56
2019-04-29T01:46:07.363Z,3.43
2019-04-29T01:51:15.884Z,4.03
2019-04-29T01:56:24.393Z,3.62
2019-04-29T02:01:32.937Z,3.50
2019-04-29T02:06:41.505Z,3.93
2019-04-29T02:11:50.084Z,4.19
2019-04-29T02:16:58.823Z,4.14
2019-04-29T02:22:07.344Z,4.30
2019-04-29T02:27:15.860Z,3.98
2019-04-29T02:32:24.436Z,4.17
2019-04-29T02:37:32.933Z,4.13
2019-04-29T02:42:41.574Z,4.02
2019-04-29T02:47:50.132Z,4.06
2019-04-29T02:52:58.655Z,4.21
2019-04-29T02:58:07.174Z,4.19
2019-04-29T03:03:15.691Z,4.48
2019-04-29T03:08:24.244Z,4.23
2019-04-29T03:13:32.773Z,4.20
2019-04-29T03:18:41.293Z,3.98
2019-04-29T03:23:49.927Z,4.10
2019-04-29T03:28:58.484Z,4.41
2019-04-29T03:34:07.004Z,4.32
2019-04-29T03:39:15.529Z,4.50
2019-04-29T03:44:24.095Z,4.39
2019-04-29T03:49:32.568Z,4.42
2019-04-29T03:54:41.134Z,4.56
2019-04-29T03:59:49.628Z,4.76
2019-04-29T04:04:58.110Z,4.98
2019-04-29T04:10:06.654Z,5.05
2019-04-29T04:15:15.162Z,5.04
2019-04-29T04:20:23.668Z,5.30
2019-04-29T04:25:32.134Z,5.32
2019-04-29T04:30:40.868Z,5.27
2019-04-29T04:35:49.354Z,5.40
2019-04-29T04:40:57.922Z,5.64
2019-04-29T04:46:06.415Z,5.39
2019-04-29T04:51:14.918Z,5.59
2019-04-29T04:56:23.481Z,5.97
2019-04-29T05:01:32.011Z,6.06
2019-04-29T05:06:40.700Z,5.79
2019-04-29T05:11:49.230Z,6.31
2019-04-29T05:16:57.772Z,6.51
2019-04-29T05:22:06.261Z,6.33
2019-04-29T05:27:14.816Z,6.58
2019-04-29T05:32:23.454Z,6.41
2019-04-29T05:37:31.982Z,6.92
2019-04-29T05:42:40.504Z,7.18
2019-04-29T05:47:52.404Z,7.03
2019-04-29T05:52:57.302Z,7.80
2019-04-29T05:58:05.969Z,5.94
2019-04-29T06:03:18.335Z,7.73
2019-04-29T06:08:17.010Z,8.17
2019-04-29T06:13:25.771Z,7.86
2019-04-29T06:18:34.340Z,7.68
2019-04-29T06:23:43.111Z,8.35
2019-04-29T06:28:51.786Z,8.28
2019-04-29T06:34:00.576Z,8.88
2019-04-29T06:39:08.462Z,8.76
2019-04-29T06:44:17.078Z,9.69
2019-04-29T06:49:25.704Z,8.16
2019-04-29T06:54:34.539Z,9.37
2019-04-29T06:59:47.254Z,11.13
2019-04-29T07:04:51.113Z,11.10
2019-04-29T07:09:59.559Z,11.29
2019-04-29T07:15:12.113Z,12.56
2019-04-29T09:53:58.356Z,14.68
2019-04-29T09:59:06.802Z,14.19
2019-04-29T10:04:15.335Z,15.53
2019-04-29T10:09:23.850Z,15.77
2019-04-29T10:14:32.555Z,14.96
2019-04-29T10:19:41.031Z,9.88
2019-04-29T10:24:49.866Z,13.91
2019-04-29T10:29:58.442Z,12.78
2019-04-29T10:35:08.842Z,9.52
2019-04-29T10:40:15.079Z,11.67
2019-04-29T10:45:23.639Z,12.28
2019-04-29T10:50:32.232Z,12.13
2019-04-29T10:55:40.930Z,10.90
2019-04-29T11:00:52.743Z,10.35
2019-04-29T11:06:01.767Z,11.31
2019-04-29T11:11:05.568Z,10.54
2019-04-29T11:16:22.902Z,10.20
2019-04-29T11:21:18.370Z,13.16
2019-04-29T11:26:26.908Z,14.19
2019-04-29T11:31:35.518Z,11.12
2019-04-29T11:36:44.262Z,8.85
2019-04-29T11:41:54.553Z,9.17
2019-04-29T11:47:00.588Z,9.93
2019-04-29T11:52:10.228Z,12.07
2019-04-29T11:57:17.219Z,12.67
2019-04-29T12:07:34.069Z,11.49
2019-04-29T12:12:43.636Z,13.68
2019-04-29T12:17:50.386Z,13.15
2019-04-29T12:22:58.919Z,12.22
2019-04-29T12:28:18.934Z,12.14
2019-04-29T12:33:15.422Z,12.23
2019-04-29T12:38:23.972Z,10.40
2019-04-29T12:43:32.556Z,11.20
2019-04-29T12:48:41.083Z,12.65
2019-04-29T12:53:49.552Z,10.24
2019-04-29T12:58:59.559Z,11.22
2019-04-29T13:04:06.146Z,11.06
2019-04-29T13:09:17.877Z,8.74
2019-04-29T13:14:22.650Z,8.18
2019-04-29T13:19:31.251Z,10.86
2019-04-29T13:24:42.685Z,11.26
2019-04-29T13:29:47.870Z,9.59
2019-04-29T13:34:56.361Z,7.83
2019-04-29T13:40:05.696Z,8.69
2019-04-29T13:50:37.917Z,9.04
2019-04-29T13:55:47.979Z,8.45
2019-04-29T14:00:38.466Z,5.93
2019-04-29T14:05:47.021Z,7.38
2019-04-29T14:10:55.604Z,7.74
2019-04-29T14:16:07.671Z,7.96
2019-04-29T14:21:12.194Z,6.45
2019-04-29T14:26:20.742Z,8.15
2019-04-29T14:31:30.324Z,8.19
2019-04-29T14:36:37.335Z,7.25
2019-04-29T14:41:45.869Z,7.32
2019-04-29T14:46:56.206Z,6.98
2019-04-29T14:52:03.445Z,6.34
2019-04-29T14:57:10.596Z,6.70
2019-04-29T15:02:19.297Z,6.67
2019-04-29T15:07:28.052Z,4.80
2019-04-29T15:12:40.827Z,5.38
2019-04-29T15:17:46.343Z,5.21
2019-04-29T15:22:52.953Z,5.09
2019-04-29T15:28:01.586Z,4.98
2019-04-29T15:33:10.121Z,6.42
2019-04-29T15:38:18.631Z,6.55
2019-04-29T15:43:46.064Z,6.02
2019-04-29T15:48:35.857Z,4.60
2019-04-29T15:53:44.497Z,5.72
2019-04-29T15:58:53.116Z,5.32
2019-04-29T16:04:01.569Z,6.10
2019-04-29T16:09:10.098Z,5.21
2019-04-29T16:14:18.706Z,4.80
2019-04-29T16:19:27.211Z,5.34
2019-04-29T16:24:38.197Z,4.69
2019-04-29T16:29:46.297Z,4.99
2019-04-29T16:34:52.075Z,4.68
2019-04-29T16:40:01.195Z,4.65
2019-04-29T16:45:11.965Z,4.96
2019-04-29T16:50:16.792Z,4.74
2019-04-29T16:55:25.369Z,4.11
2019-04-29T17:00:33.893Z,4.53
2019-04-29T17:05:42.478Z,4.02
2019-04-29T17:10:50.955Z,4.29
2019-04-29T17:15:59.592Z,4.09
2019-04-29T17:21:08.165Z,3.75
2019-04-29T17:26:16.734Z,4.02
2019-04-29T17:31:25.586Z,3.76
2019-04-29T17:36:33.331Z,4.20
2019-04-29T17:41:42.002Z,5.00
2019-04-29T17:46:50.546Z,50.17
2019-04-29T17:52:02.571Z,50.04
2019-04-29T17:57:25.670Z,9.32
2019-04-29T18:02:21.863Z,5.53
2019-04-29T18:07:25.066Z,4.89
2019-04-29T18:12:37.581Z,4.47
2019-04-29T18:17:39.546Z,4.30
2019-04-29T18:22:48.147Z,4.78
2019-04-29T18:27:59.942Z,4.68
2019-04-29T18:33:05.356Z,5.54
2019-04-29T18:38:13.381Z,5.20
2019-04-29T18:43:23.060Z,5.11
2019-04-29T18:48:29.134Z,6.20
2019-04-29T18:53:37.716Z,4.89
2019-04-29T18:58:49.976Z,6.18
2019-04-29T19:03:55.729Z,6.06
2019-04-29T19:09:02.869Z,6.61
2019-04-29T19:14:10.768Z,6.67
2019-04-29T19:19:19.259Z,9.02
2019-04-29T19:24:31.504Z,9.94
2019-04-29T19:29:38.790Z,9.44
2019-04-29T19:34:45.870Z,11.05
2019-04-29T19:39:52.504Z,11.52
2019-04-29T19:45:00.352Z,11.57
2019-04-29T19:50:10.134Z,10.71
2019-04-29T19:55:15.554Z,12.75
2019-04-29T20:00:29.299Z,12.82
2019-04-29T20:05:36.951Z,12.53
2019-04-29T20:10:45.973Z,13.36
2019-04-29T20:15:48.820Z,14.48
2019-04-29T20:21:08.124Z,17.24
2019-04-29T20:26:13.800Z,13.82
2019-04-29T20:31:18.652Z,15.95
2019-04-29T20:36:37.361Z,15.62
2019-04-29T20:41:40.185Z,18.08
2019-04-29T20:46:45.101Z,16.59
2019-04-29T20:51:49.759Z,17.66
2019-04-29T20:57:02.807Z,15.62
2019-04-29T21:02:11.094Z,16.63
2019-04-29T21:07:09.341Z,15.71
2019-04-29T21:12:20.386Z,14.05
2019-04-29T21:17:31.279Z,14.87
2019-04-29T21:22:35.716Z,15.45
2019-04-29T21:27:42.199Z,14.37
2019-04-29T21:32:50.728Z,12.06
2019-04-29T21:37:59.278Z,11.33
2019-04-29T21:43:13.461Z,10.23
2019-04-29T21:48:15.920Z,10.06
2019-04-29T21:53:25.213Z,9.81
2019-04-29T21:58:33.038Z,10.38
2019-04-29T22:03:40.586Z,10.85
2019-04-29T22:08:49.322Z,12.02
2019-04-29T22:13:57.861Z,11.94
2019-04-29T22:19:06.370Z,15.48
2019-04-29T22:24:14.900Z,15.21
2019-04-29T22:29:23.435Z,17.10
2019-04-29T22:34:32.007Z,18.50
2019-04-29T22:39:40.494Z,15.90
2019-04-29T22:44:52.534Z,16.04
2019-04-29T22:49:58.726Z,15.68
2019-04-29T22:55:05.615Z,18.11
2019-04-29T23:00:15.196Z,17.70
2019-04-29T23:05:23.586Z,18.86
2019-04-29T23:10:29.931Z,18.27
2019-04-29T23:15:38.527Z,17.67
2019-04-29T23:20:47.041Z,19.18
2019-04-29T23:25:55.742Z,18.35
2019-04-29T23:31:04.027Z,19.11
2019-04-29T23:36:14.089Z,19.92
2019-04-29T23:41:20.575Z,21.89
2019-04-29T23:46:29.674Z,17.97
2019-04-29T23:51:37.760Z,19.38
2019-04-29T23:56:46.586Z,21.74
